臺東航空站 - ATIS

METAR RCFN 221200Z 04009KT 360V080 9999 FEW015 SCT035 BKN050 23/20 Q1017 NOSIG RMK A3005(S)=

站台狀態:Online
最後更新:2019-02-22 20:00:02